sensor_id;sensor_type;location;lat;lon;timestamp;P1;durP1;ratioP1;P2;durP2;ratioP2
19038;SDS011;9652;49.014;12.052;2023-02-12T00:00:10;22.47;;;13.93;;
19038;SDS011;9652;49.014;12.052;2023-02-12T00:02:42;19.37;;;11.37;;
19038;SDS011;9652;49.014;12.052;2023-02-12T00:05:09;18.70;;;12.00;;
19038;SDS011;9652;49.014;12.052;2023-02-12T00:07:37;21.03;;;12.33;;
19038;SDS011;9652;49.014;12.052;2023-02-12T00:10:05;20.10;;;12.17;;
19038;SDS011;9652;49.014;12.052;2023-02-12T00:12:33;22.50;;;12.33;;
19038;SDS011;9652;49.014;12.052;2023-02-12T00:15:00;21.17;;;12.73;;
19038;SDS011;9652;49.014;12.052;2023-02-12T00:17:27;22.00;;;13.13;;
19038;SDS011;9652;49.014;12.052;2023-02-12T00:19:54;22.07;;;12.80;;
19038;SDS011;9652;49.014;12.052;2023-02-12T00:22:21;25.63;;;13.03;;
19038;SDS011;9652;49.014;12.052;2023-02-12T00:24:50;21.60;;;11.67;;
19038;SDS011;9652;49.014;12.052;2023-02-12T00:27:17;19.80;;;12.47;;
19038;SDS011;9652;49.014;12.052;2023-02-12T00:29:44;22.27;;;13.07;;
19038;SDS011;9652;49.014;12.052;2023-02-12T00:32:11;22.10;;;12.10;;
19038;SDS011;9652;49.014;12.052;2023-02-12T00:34:44;19.03;;;12.10;;
19038;SDS011;9652;49.014;12.052;2023-02-12T00:37:14;19.13;;;11.80;;
19038;SDS011;9652;49.014;12.052;2023-02-12T00:39:41;21.67;;;13.03;;
19038;SDS011;9652;49.014;12.052;2023-02-12T00:42:11;22.70;;;12.93;;
19038;SDS011;9652;49.014;12.052;2023-02-12T00:44:38;21.57;;;12.47;;
19038;SDS011;9652;49.014;12.052;2023-02-12T00:47:05;22.80;;;12.73;;
19038;SDS011;9652;49.014;12.052;2023-02-12T00:49:32;21.37;;;12.50;;
19038;SDS011;9652;49.014;12.052;2023-02-12T00:51:59;21.30;;;13.13;;
19038;SDS011;9652;49.014;12.052;2023-02-12T00:54:28;25.83;;;12.87;;
19038;SDS011;9652;49.014;12.052;2023-02-12T00:56:56;18.67;;;12.07;;
19038;SDS011;9652;49.014;12.052;2023-02-12T00:59:29;19.10;;;12.10;;
19038;SDS011;9652;49.014;12.052;2023-02-12T01:01:56;18.03;;;11.13;;
19038;SDS011;9652;49.014;12.052;2023-02-12T01:04:23;20.20;;;11.87;;
19038;SDS011;9652;49.014;12.052;2023-02-12T01:06:50;18.87;;;11.77;;
19038;SDS011;9652;49.014;12.052;2023-02-12T01:09:17;20.33;;;12.27;;
19038;SDS011;9652;49.014;12.052;2023-02-12T01:11:46;20.43;;;12.27;;
19038;SDS011;9652;49.014;12.052;2023-02-12T01:14:14;22.17;;;12.00;;
19038;SDS011;9652;49.014;12.052;2023-02-12T01:16:43;19.47;;;12.10;;
19038;SDS011;9652;49.014;12.052;2023-02-12T01:19:10;20.77;;;12.50;;
19038;SDS011;9652;49.014;12.052;2023-02-12T01:21:38;19.37;;;12.60;;
19038;SDS011;9652;49.014;12.052;2023-02-12T01:24:05;17.90;;;11.93;;
19038;SDS011;9652;49.014;12.052;2023-02-12T01:26:32;18.53;;;11.77;;
19038;SDS011;9652;49.014;12.052;2023-02-12T01:29:00;18.37;;;12.60;;
19038;SDS011;9652;49.014;12.052;2023-02-12T01:31:31;19.63;;;11.90;;
19038;SDS011;9652;49.014;12.052;2023-02-12T01:34:03;19.87;;;12.67;;
19038;SDS011;9652;49.014;12.052;2023-02-12T01:36:32;19.13;;;10.87;;
19038;SDS011;9652;49.014;12.052;2023-02-12T01:39:00;20.17;;;11.57;;
19038;SDS011;9652;49.014;12.052;2023-02-12T01:41:28;18.80;;;11.67;;
19038;SDS011;9652;49.014;12.052;2023-02-12T01:44:06;18.10;;;12.43;;
19038;SDS011;9652;49.014;12.052;2023-02-12T01:46:36;18.37;;;12.10;;
19038;SDS011;9652;49.014;12.052;2023-02-12T01:49:06;21.70;;;13.53;;
19038;SDS011;9652;49.014;12.052;2023-02-12T01:51:39;18.23;;;11.40;;
19038;SDS011;9652;49.014;12.052;2023-02-12T01:54:09;19.40;;;12.37;;
19038;SDS011;9652;49.014;12.052;2023-02-12T01:56:40;20.23;;;12.20;;
19038;SDS011;9652;49.014;12.052;2023-02-12T01:59:08;18.53;;;11.00;;
19038;SDS011;9652;49.014;12.052;2023-02-12T02:01:37;21.10;;;11.90;;
19038;SDS011;9652;49.014;12.052;2023-02-12T02:04:06;20.27;;;11.83;;
19038;SDS011;9652;49.014;12.052;2023-02-12T02:06:43;18.67;;;11.10;;
19038;SDS011;9652;49.014;12.052;2023-02-12T02:09:16;20.33;;;11.53;;
19038;SDS011;9652;49.014;12.052;2023-02-12T02:11:45;22.27;;;13.53;;
19038;SDS011;9652;49.014;12.052;2023-02-12T02:14:30;21.33;;;12.73;;
19038;SDS011;9652;49.014;12.052;2023-02-12T02:17:04;19.33;;;11.23;;
19038;SDS011;9652;49.014;12.052;2023-02-12T02:26:31;21.87;;;10.87;;
19038;SDS011;9652;49.014;12.052;2023-02-12T02:29:20;19.60;;;11.40;;
19038;SDS011;9652;49.014;12.052;2023-02-12T02:32:31;19.57;;;11.80;;
19038;SDS011;9652;49.014;12.052;2023-02-12T02:35:09;19.73;;;11.57;;
19038;SDS011;9652;49.014;12.052;2023-02-12T02:37:44;17.67;;;11.73;;
19038;SDS011;9652;49.014;12.052;2023-02-12T02:40:22;19.30;;;12.43;;
19038;SDS011;9652;49.014;12.052;2023-02-12T02:42:58;21.97;;;12.27;;
19038;SDS011;9652;49.014;12.052;2023-02-12T02:45:33;21.60;;;13.13;;
19038;SDS011;9652;49.014;12.052;2023-02-12T02:48:09;20.23;;;12.13;;
19038;SDS011;9652;49.014;12.052;2023-02-12T02:50:43;19.77;;;12.37;;
19038;SDS011;9652;49.014;12.052;2023-02-12T02:53:17;17.77;;;11.63;;
19038;SDS011;9652;49.014;12.052;2023-02-12T02:55:53;22.13;;;11.73;;
19038;SDS011;9652;49.014;12.052;2023-02-12T02:58:25;19.73;;;12.23;;
19038;SDS011;9652;49.014;12.052;2023-02-12T03:01:01;22.10;;;12.00;;
19038;SDS011;9652;49.014;12.052;2023-02-12T03:03:35;20.70;;;12.87;;
19038;SDS011;9652;49.014;12.052;2023-02-12T03:06:09;22.03;;;12.87;;
19038;SDS011;9652;49.014;12.052;2023-02-12T03:08:41;18.60;;;11.87;;
19038;SDS011;9652;49.014;12.052;2023-02-12T03:11:18;19.90;;;13.13;;
19038;SDS011;9652;49.014;12.052;2023-02-12T03:13:53;18.17;;;12.40;;
19038;SDS011;9652;49.014;12.052;2023-02-12T03:16:27;19.47;;;12.07;;
19038;SDS011;9652;49.014;12.052;2023-02-12T03:19:02;18.83;;;11.10;;
19038;SDS011;9652;49.014;12.052;2023-02-12T03:21:39;23.30;;;12.13;;
19038;SDS011;9652;49.014;12.052;2023-02-12T03:24:11;20.97;;;12.73;;
19038;SDS011;9652;49.014;12.052;2023-02-12T03:26:47;22.23;;;13.37;;
19038;SDS011;9652;49.014;12.052;2023-02-12T03:29:23;15.87;;;11.33;;
19038;SDS011;9652;49.014;12.052;2023-02-12T03:31:54;22.37;;;12.23;;
19038;SDS011;9652;49.014;12.052;2023-02-12T03:34:36;20.97;;;12.67;;
19038;SDS011;9652;49.014;12.052;2023-02-12T03:37:13;17.63;;;11.03;;
19038;SDS011;9652;49.014;12.052;2023-02-12T03:39:48;23.33;;;12.37;;
19038;SDS011;9652;49.014;12.052;2023-02-12T03:42:26;19.97;;;12.07;;
19038;SDS011;9652;49.014;12.052;2023-02-12T03:45:03;20.80;;;11.90;;
19038;SDS011;9652;49.014;12.052;2023-02-12T03:47:41;17.17;;;11.87;;
19038;SDS011;9652;49.014;12.052;2023-02-12T03:50:18;21.07;;;12.33;;
19038;SDS011;9652;49.014;12.052;2023-02-12T03:52:54;21.43;;;11.40;;
19038;SDS011;9652;49.014;12.052;2023-02-12T03:55:21;22.63;;;12.70;;
19038;SDS011;9652;49.014;12.052;2023-02-12T03:57:49;18.77;;;12.63;;
19038;SDS011;9652;49.014;12.052;2023-02-12T04:00:21;23.47;;;11.90;;
19038;SDS011;9652;49.014;12.052;2023-02-12T04:02:50;20.30;;;12.13;;
19038;SDS011;9652;49.014;12.052;2023-02-12T04:05:21;19.83;;;11.97;;
19038;SDS011;9652;49.014;12.052;2023-02-12T04:07:50;18.93;;;10.90;;
19038;SDS011;9652;49.014;12.052;2023-02-12T04:10:20;18.17;;;10.77;;
19038;SDS011;9652;49.014;12.052;2023-02-12T04:12:56;19.30;;;11.93;;
19038;SDS011;9652;49.014;12.052;2023-02-12T04:15:48;16.60;;;11.30;;
19038;SDS011;9652;49.014;12.052;2023-02-12T04:18:33;19.20;;;11.17;;
19038;SDS011;9652;49.014;12.052;2023-02-12T04:21:12;18.70;;;11.10;;
19038;SDS011;9652;49.014;12.052;2023-02-12T04:24:04;17.77;;;11.07;;
19038;SDS011;9652;49.014;12.052;2023-02-12T04:26:46;18.87;;;10.67;;
19038;SDS011;9652;49.014;12.052;2023-02-12T04:29:21;15.87;;;10.80;;
19038;SDS011;9652;49.014;12.052;2023-02-12T04:32:00;18.80;;;12.07;;
19038;SDS011;9652;49.014;12.052;2023-02-12T04:34:37;18.00;;;11.63;;
19038;SDS011;9652;49.014;12.052;2023-02-12T04:37:13;18.80;;;11.80;;
19038;SDS011;9652;49.014;12.052;2023-02-12T04:39:44;20.70;;;12.27;;
19038;SDS011;9652;49.014;12.052;2023-02-12T04:42:14;20.70;;;11.83;;
19038;SDS011;9652;49.014;12.052;2023-02-12T04:44:42;23.37;;;12.70;;
19038;SDS011;9652;49.014;12.052;2023-02-12T04:47:10;24.43;;;12.23;;
19038;SDS011;9652;49.014;12.052;2023-02-12T04:49:38;21.90;;;13.17;;
19038;SDS011;9652;49.014;12.052;2023-02-12T04:52:05;16.87;;;11.73;;
19038;SDS011;9652;49.014;12.052;2023-02-12T04:54:35;18.77;;;12.10;;
19038;SDS011;9652;49.014;12.052;2023-02-12T04:57:03;17.87;;;12.03;;
19038;SDS011;9652;49.014;12.052;2023-02-12T04:59:30;21.57;;;11.90;;
19038;SDS011;9652;49.014;12.052;2023-02-12T05:01:57;18.13;;;10.97;;
19038;SDS011;9652;49.014;12.052;2023-02-12T05:04:24;21.90;;;13.13;;
19038;SDS011;9652;49.014;12.052;2023-02-12T05:06:51;20.63;;;12.10;;
19038;SDS011;9652;49.014;12.052;2023-02-12T05:09:18;22.37;;;12.47;;
19038;SDS011;9652;49.014;12.052;2023-02-12T05:11:47;20.93;;;12.23;;
19038;SDS011;9652;49.014;12.052;2023-02-12T05:14:14;23.13;;;12.50;;
19038;SDS011;9652;49.014;12.052;2023-02-12T05:16:42;19.63;;;12.67;;
19038;SDS011;9652;49.014;12.052;2023-02-12T05:19:09;21.13;;;12.17;;
19038;SDS011;9652;49.014;12.052;2023-02-12T05:21:36;24.00;;;13.00;;
19038;SDS011;9652;49.014;12.052;2023-02-12T05:24:04;21.57;;;12.57;;
19038;SDS011;9652;49.014;12.052;2023-02-12T05:26:32;22.00;;;12.77;;
19038;SDS011;9652;49.014;12.052;2023-02-12T05:29:01;20.20;;;12.30;;
19038;SDS011;9652;49.014;12.052;2023-02-12T05:31:28;17.73;;;11.50;;
19038;SDS011;9652;49.014;12.052;2023-02-12T05:33:55;19.27;;;11.03;;
19038;SDS011;9652;49.014;12.052;2023-02-12T05:36:23;20.70;;;11.93;;
19038;SDS011;9652;49.014;12.052;2023-02-12T05:38:51;25.87;;;13.73;;
19038;SDS011;9652;49.014;12.052;2023-02-12T05:41:22;20.93;;;12.87;;
19038;SDS011;9652;49.014;12.052;2023-02-12T05:43:50;18.23;;;11.97;;
19038;SDS011;9652;49.014;12.052;2023-02-12T05:46:19;23.27;;;12.43;;
19038;SDS011;9652;49.014;12.052;2023-02-12T05:48:47;24.67;;;12.27;;
19038;SDS011;9652;49.014;12.052;2023-02-12T05:51:15;20.60;;;12.77;;
19038;SDS011;9652;49.014;12.052;2023-02-12T05:53:44;20.17;;;12.07;;
19038;SDS011;9652;49.014;12.052;2023-02-12T05:56:11;21.43;;;11.30;;
19038;SDS011;9652;49.014;12.052;2023-02-12T05:58:43;20.70;;;11.73;;
19038;SDS011;9652;49.014;12.052;2023-02-12T06:01:14;19.70;;;11.50;;
19038;SDS011;9652;49.014;12.052;2023-02-12T06:03:46;18.70;;;11.50;;
19038;SDS011;9652;49.014;12.052;2023-02-12T06:06:13;19.73;;;12.40;;
19038;SDS011;9652;49.014;12.052;2023-02-12T06:08:40;23.03;;;14.23;;
19038;SDS011;9652;49.014;12.052;2023-02-12T06:11:08;20.37;;;11.80;;
19038;SDS011;9652;49.014;12.052;2023-02-12T06:13:39;19.10;;;12.77;;
19038;SDS011;9652;49.014;12.052;2023-02-12T06:16:06;19.37;;;12.37;;
19038;SDS011;9652;49.014;12.052;2023-02-12T06:18:43;19.10;;;12.33;;
19038;SDS011;9652;49.014;12.052;2023-02-12T06:21:12;20.63;;;12.20;;
19038;SDS011;9652;49.014;12.052;2023-02-12T06:23:39;23.97;;;12.93;;
19038;SDS011;9652;49.014;12.052;2023-02-12T06:26:06;19.83;;;12.13;;
19038;SDS011;9652;49.014;12.052;2023-02-12T06:28:33;20.60;;;11.80;;
19038;SDS011;9652;49.014;12.052;2023-02-12T06:31:01;20.63;;;12.80;;
19038;SDS011;9652;49.014;12.052;2023-02-12T06:33:28;19.40;;;11.93;;
19038;SDS011;9652;49.014;12.052;2023-02-12T06:35:56;19.33;;;11.03;;
19038;SDS011;9652;49.014;12.052;2023-02-12T06:38:23;19.10;;;12.17;;
19038;SDS011;9652;49.014;12.052;2023-02-12T06:40:50;20.50;;;11.73;;
19038;SDS011;9652;49.014;12.052;2023-02-12T06:43:17;22.33;;;12.77;;
19038;SDS011;9652;49.014;12.052;2023-02-12T06:45:44;20.87;;;12.67;;
19038;SDS011;9652;49.014;12.052;2023-02-12T06:48:11;25.27;;;13.13;;
19038;SDS011;9652;49.014;12.052;2023-02-12T06:50:38;21.20;;;11.83;;
19038;SDS011;9652;49.014;12.052;2023-02-12T06:53:06;21.17;;;12.23;;
19038;SDS011;9652;49.014;12.052;2023-02-12T06:55:34;23.67;;;12.03;;
19038;SDS011;9652;49.014;12.052;2023-02-12T06:58:01;21.97;;;12.43;;
19038;SDS011;9652;49.014;12.052;2023-02-12T07:00:28;23.13;;;13.90;;
19038;SDS011;9652;49.014;12.052;2023-02-12T07:02:55;22.57;;;12.33;;
19038;SDS011;9652;49.014;12.052;2023-02-12T07:05:23;21.23;;;12.13;;
19038;SDS011;9652;49.014;12.052;2023-02-12T07:07:50;18.70;;;12.03;;
19038;SDS011;9652;49.014;12.052;2023-02-12T07:10:19;17.63;;;11.63;;
19038;SDS011;9652;49.014;12.052;2023-02-12T07:12:46;21.13;;;12.20;;
19038;SDS011;9652;49.014;12.052;2023-02-12T07:15:13;22.07;;;12.57;;
19038;SDS011;9652;49.014;12.052;2023-02-12T07:17:40;20.93;;;13.30;;
19038;SDS011;9652;49.014;12.052;2023-02-12T07:20:07;21.03;;;12.80;;
19038;SDS011;9652;49.014;12.052;2023-02-12T07:22:35;23.87;;;12.90;;
19038;SDS011;9652;49.014;12.052;2023-02-12T07:25:02;18.30;;;11.80;;
19038;SDS011;9652;49.014;12.052;2023-02-12T07:27:33;23.50;;;12.70;;
19038;SDS011;9652;49.014;12.052;2023-02-12T07:30:02;19.93;;;12.60;;
19038;SDS011;9652;49.014;12.052;2023-02-12T07:32:31;22.77;;;12.77;;
19038;SDS011;9652;49.014;12.052;2023-02-12T07:34:58;21.23;;;13.40;;
19038;SDS011;9652;49.014;12.052;2023-02-12T07:37:26;19.50;;;11.70;;
19038;SDS011;9652;49.014;12.052;2023-02-12T07:39:53;18.43;;;12.13;;
19038;SDS011;9652;49.014;12.052;2023-02-12T07:42:20;19.37;;;11.90;;
19038;SDS011;9652;49.014;12.052;2023-02-12T07:44:49;20.57;;;12.30;;
19038;SDS011;9652;49.014;12.052;2023-02-12T07:47:16;22.30;;;12.93;;
19038;SDS011;9652;49.014;12.052;2023-02-12T07:49:44;23.13;;;13.27;;
19038;SDS011;9652;49.014;12.052;2023-02-12T07:52:11;21.07;;;12.80;;
19038;SDS011;9652;49.014;12.052;2023-02-12T07:54:38;19.93;;;12.67;;
19038;SDS011;9652;49.014;12.052;2023-02-12T07:57:05;21.40;;;13.07;;
19038;SDS011;9652;49.014;12.052;2023-02-12T07:59:32;19.27;;;12.20;;
19038;SDS011;9652;49.014;12.052;2023-02-12T08:02:00;22.43;;;12.13;;
19038;SDS011;9652;49.014;12.052;2023-02-12T08:04:27;20.30;;;12.23;;
19038;SDS011;9652;49.014;12.052;2023-02-12T08:06:55;22.13;;;12.53;;
19038;SDS011;9652;49.014;12.052;2023-02-12T08:09:23;24.23;;;13.07;;
19038;SDS011;9652;49.014;12.052;2023-02-12T08:11:54;24.33;;;12.53;;
19038;SDS011;9652;49.014;12.052;2023-02-12T08:14:23;22.63;;;12.33;;
19038;SDS011;9652;49.014;12.052;2023-02-12T08:16:51;19.93;;;12.33;;
19038;SDS011;9652;49.014;12.052;2023-02-12T08:19:19;21.13;;;13.03;;
19038;SDS011;9652;49.014;12.052;2023-02-12T08:21:48;24.37;;;13.03;;
19038;SDS011;9652;49.014;12.052;2023-02-12T08:24:15;20.73;;;13.40;;
19038;SDS011;9652;49.014;12.052;2023-02-12T08:26:43;23.40;;;14.07;;
19038;SDS011;9652;49.014;12.052;2023-02-12T08:29:11;25.87;;;13.93;;
19038;SDS011;9652;49.014;12.052;2023-02-12T08:31:42;23.47;;;13.17;;
19038;SDS011;9652;49.014;12.052;2023-02-12T08:34:15;22.37;;;13.20;;
19038;SDS011;9652;49.014;12.052;2023-02-12T08:36:47;20.73;;;12.57;;
19038;SDS011;9652;49.014;12.052;2023-02-12T08:39:18;22.07;;;12.93;;
19038;SDS011;9652;49.014;12.052;2023-02-12T08:41:46;19.50;;;11.83;;
19038;SDS011;9652;49.014;12.052;2023-02-12T08:44:13;21.70;;;13.47;;
19038;SDS011;9652;49.014;12.052;2023-02-12T08:46:43;20.37;;;11.63;;
19038;SDS011;9652;49.014;12.052;2023-02-12T08:49:12;21.57;;;12.33;;
19038;SDS011;9652;49.014;12.052;2023-02-12T08:51:43;21.93;;;13.20;;
19038;SDS011;9652;49.014;12.052;2023-02-12T08:54:14;18.83;;;11.13;;
19038;SDS011;9652;49.014;12.052;2023-02-12T08:56:44;22.43;;;12.77;;
19038;SDS011;9652;49.014;12.052;2023-02-12T08:59:11;23.27;;;13.40;;
19038;SDS011;9652;49.014;12.052;2023-02-12T09:01:40;23.77;;;12.90;;
19038;SDS011;9652;49.014;12.052;2023-02-12T09:04:09;23.23;;;13.90;;
19038;SDS011;9652;49.014;12.052;2023-02-12T09:06:42;20.47;;;12.67;;
19038;SDS011;9652;49.014;12.052;2023-02-12T09:09:10;20.80;;;12.57;;
19038;SDS011;9652;49.014;12.052;2023-02-12T09:11:37;23.90;;;12.73;;
19038;SDS011;9652;49.014;12.052;2023-02-12T09:14:05;25.53;;;13.57;;
19038;SDS011;9652;49.014;12.052;2023-02-12T09:16:36;24.10;;;13.00;;
19038;SDS011;9652;49.014;12.052;2023-02-12T09:19:05;22.23;;;12.07;;
19038;SDS011;9652;49.014;12.052;2023-02-12T09:21:32;24.27;;;13.27;;
19038;SDS011;9652;49.014;12.052;2023-02-12T09:23:59;22.07;;;13.17;;
19038;SDS011;9652;49.014;12.052;2023-02-12T09:26:29;24.13;;;13.93;;
19038;SDS011;9652;49.014;12.052;2023-02-12T09:28:56;23.77;;;14.17;;
19038;SDS011;9652;49.014;12.052;2023-02-12T09:31:24;23.30;;;13.27;;
19038;SDS011;9652;49.014;12.052;2023-02-12T09:33:56;23.47;;;13.70;;
19038;SDS011;9652;49.014;12.052;2023-02-12T09:36:25;22.10;;;13.10;;
19038;SDS011;9652;49.014;12.052;2023-02-12T09:38:53;24.90;;;13.07;;
19038;SDS011;9652;49.014;12.052;2023-02-12T09:41:41;23.53;;;12.63;;
19038;SDS011;9652;49.014;12.052;2023-02-12T09:44:40;19.90;;;11.13;;
19038;SDS011;9652;49.014;12.052;2023-02-12T09:47:16;23.17;;;12.13;;
19038;SDS011;9652;49.014;12.052;2023-02-12T09:49:55;23.70;;;12.63;;
19038;SDS011;9652;49.014;12.052;2023-02-12T09:52:37;21.80;;;11.70;;
19038;SDS011;9652;49.014;12.052;2023-02-12T09:55:06;23.27;;;12.23;;
19038;SDS011;9652;49.014;12.052;2023-02-12T09:57:41;23.20;;;12.43;;
19038;SDS011;9652;49.014;12.052;2023-02-12T10:00:13;21.63;;;13.03;;
19038;SDS011;9652;49.014;12.052;2023-02-12T10:02:46;22.93;;;12.43;;
19038;SDS011;9652;49.014;12.052;2023-02-12T10:05:19;21.13;;;12.27;;
19038;SDS011;9652;49.014;12.052;2023-02-12T10:07:56;21.63;;;12.77;;
19038;SDS011;9652;49.014;12.052;2023-02-12T10:10:42;23.83;;;12.27;;
19038;SDS011;9652;49.014;12.052;2023-02-12T10:13:24;22.33;;;11.33;;
19038;SDS011;9652;49.014;12.052;2023-02-12T10:16:05;20.87;;;12.47;;
19038;SDS011;9652;49.014;12.052;2023-02-12T10:18:46;23.90;;;13.13;;
19038;SDS011;9652;49.014;12.052;2023-02-12T10:21:32;21.07;;;12.27;;
19038;SDS011;9652;49.014;12.052;2023-02-12T10:24:17;20.10;;;11.23;;
19038;SDS011;9652;49.014;12.052;2023-02-12T10:27:02;22.07;;;11.40;;
19038;SDS011;9652;49.014;12.052;2023-02-12T10:29:40;20.73;;;10.87;;
19038;SDS011;9652;49.014;12.052;2023-02-12T10:32:12;22.27;;;11.93;;
19038;SDS011;9652;49.014;12.052;2023-02-12T10:34:50;21.47;;;11.47;;
19038;SDS011;9652;49.014;12.052;2023-02-12T10:37:20;24.63;;;12.27;;
19038;SDS011;9652;49.014;12.052;2023-02-12T10:40:03;20.27;;;11.70;;
19038;SDS011;9652;49.014;12.052;2023-02-12T10:42:43;20.77;;;11.43;;
19038;SDS011;9652;49.014;12.052;2023-02-12T10:45:15;20.53;;;10.37;;
19038;SDS011;9652;49.014;12.052;2023-02-12T10:47:46;20.43;;;12.07;;
19038;SDS011;9652;49.014;12.052;2023-02-12T10:50:21;19.27;;;11.10;;
19038;SDS011;9652;49.014;12.052;2023-02-12T10:53:08;20.33;;;11.50;;
19038;SDS011;9652;49.014;12.052;2023-02-12T10:55:45;18.30;;;9.77;;
19038;SDS011;9652;49.014;12.052;2023-02-12T10:58:16;20.27;;;11.30;;
19038;SDS011;9652;49.014;12.052;2023-02-12T11:00:56;17.47;;;10.30;;
19038;SDS011;9652;49.014;12.052;2023-02-12T11:03:27;16.40;;;8.97;;
19038;SDS011;9652;49.014;12.052;2023-02-12T11:06:09;17.83;;;10.17;;
19038;SDS011;9652;49.014;12.052;2023-02-12T11:08:40;16.07;;;9.50;;
19038;SDS011;9652;49.014;12.052;2023-02-12T11:11:09;15.80;;;9.80;;
19038;SDS011;9652;49.014;12.052;2023-02-12T11:13:39;17.60;;;10.43;;
19038;SDS011;9652;49.014;12.052;2023-02-12T11:16:14;15.13;;;8.90;;
19038;SDS011;9652;49.014;12.052;2023-02-12T11:18:56;17.53;;;10.50;;
19038;SDS011;9652;49.014;12.052;2023-02-12T11:21:26;16.57;;;9.73;;
19038;SDS011;9652;49.014;12.052;2023-02-12T11:23:53;18.50;;;10.43;;
19038;SDS011;9652;49.014;12.052;2023-02-12T11:26:22;19.17;;;10.80;;
19038;SDS011;9652;49.014;12.052;2023-02-12T11:28:53;16.87;;;10.50;;
19038;SDS011;9652;49.014;12.052;2023-02-12T11:31:24;18.17;;;10.47;;
19038;SDS011;9652;49.014;12.052;2023-02-12T11:34:05;18.33;;;10.20;;
19038;SDS011;9652;49.014;12.052;2023-02-12T11:36:39;15.87;;;9.23;;
19038;SDS011;9652;49.014;12.052;2023-02-12T11:39:15;19.30;;;10.20;;
19038;SDS011;9652;49.014;12.052;2023-02-12T11:41:49;15.83;;;9.33;;
19038;SDS011;9652;49.014;12.052;2023-02-12T11:44:19;19.80;;;10.53;;
19038;SDS011;9652;49.014;12.052;2023-02-12T11:46:54;16.13;;;9.67;;
19038;SDS011;9652;49.014;12.052;2023-02-12T11:49:26;16.67;;;9.87;;
19038;SDS011;9652;49.014;12.052;2023-02-12T11:51:58;16.40;;;9.33;;
19038;SDS011;9652;49.014;12.052;2023-02-12T11:54:29;16.10;;;9.80;;
19038;SDS011;9652;49.014;12.052;2023-02-12T11:57:09;15.90;;;9.90;;
19038;SDS011;9652;49.014;12.052;2023-02-12T12:00:03;15.67;;;9.33;;
19038;SDS011;9652;49.014;12.052;2023-02-12T12:02:51;18.33;;;9.63;;
19038;SDS011;9652;49.014;12.052;2023-02-12T12:05:27;14.90;;;9.27;;
19038;SDS011;9652;49.014;12.052;2023-02-12T12:08:01;16.43;;;9.43;;
19038;SDS011;9652;49.014;12.052;2023-02-12T12:10:38;16.00;;;9.53;;
19038;SDS011;9652;49.014;12.052;2023-02-12T12:13:13;17.10;;;9.80;;
19038;SDS011;9652;49.014;12.052;2023-02-12T12:15:49;16.10;;;10.23;;
19038;SDS011;9652;49.014;12.052;2023-02-12T12:18:56;15.17;;;9.43;;
19038;SDS011;9652;49.014;12.052;2023-02-12T12:21:50;15.70;;;9.67;;
19038;SDS011;9652;49.014;12.052;2023-02-12T12:24:25;18.13;;;9.90;;
19038;SDS011;9652;49.014;12.052;2023-02-12T12:27:07;16.70;;;9.23;;
19038;SDS011;9652;49.014;12.052;2023-02-12T12:30:10;15.23;;;8.87;;
19038;SDS011;9652;49.014;12.052;2023-02-12T12:32:47;16.63;;;8.87;;
19038;SDS011;9652;49.014;12.052;2023-02-12T12:35:24;14.83;;;9.33;;
19038;SDS011;9652;49.014;12.052;2023-02-12T12:38:05;18.77;;;10.77;;
19038;SDS011;9652;49.014;12.052;2023-02-12T12:40:47;15.23;;;9.00;;
19038;SDS011;9652;49.014;12.052;2023-02-12T12:43:31;16.57;;;9.07;;
19038;SDS011;9652;49.014;12.052;2023-02-12T12:46:24;15.83;;;8.83;;
19038;SDS011;9652;49.014;12.052;2023-02-12T12:49:17;16.67;;;8.93;;
19038;SDS011;9652;49.014;12.052;2023-02-12T12:52:25;15.17;;;8.37;;
19038;SDS011;9652;49.014;12.052;2023-02-12T12:55:39;14.47;;;8.03;;
19038;SDS011;9652;49.014;12.052;2023-02-12T12:58:27;14.23;;;8.37;;
19038;SDS011;9652;49.014;12.052;2023-02-12T13:01:15;14.00;;;8.73;;
19038;SDS011;9652;49.014;12.052;2023-02-12T13:07:07;17.27;;;9.93;;
19038;SDS011;9652;49.014;12.052;2023-02-12T13:10:05;15.60;;;9.33;;
19038;SDS011;9652;49.014;12.052;2023-02-12T13:12:51;14.73;;;8.87;;
19038;SDS011;9652;49.014;12.052;2023-02-12T13:15:32;13.80;;;8.20;;
19038;SDS011;9652;49.014;12.052;2023-02-12T13:18:11;13.47;;;8.30;;
19038;SDS011;9652;49.014;12.052;2023-02-12T13:20:54;13.77;;;7.57;;
19038;SDS011;9652;49.014;12.052;2023-02-12T13:23:35;13.67;;;8.17;;
19038;SDS011;9652;49.014;12.052;2023-02-12T13:26:14;13.17;;;7.77;;
19038;SDS011;9652;49.014;12.052;2023-02-12T13:28:55;13.33;;;7.53;;
19038;SDS011;9652;49.014;12.052;2023-02-12T13:31:29;12.00;;;7.30;;
19038;SDS011;9652;49.014;12.052;2023-02-12T13:34:06;11.57;;;6.80;;
19038;SDS011;9652;49.014;12.052;2023-02-12T13:36:41;9.33;;;6.40;;
19038;SDS011;9652;49.014;12.052;2023-02-12T13:39:14;10.07;;;6.43;;
19038;SDS011;9652;49.014;12.052;2023-02-12T13:41:55;10.97;;;7.23;;
19038;SDS011;9652;49.014;12.052;2023-02-12T13:44:39;10.13;;;6.83;;
19038;SDS011;9652;49.014;12.052;2023-02-12T13:47:23;11.97;;;7.07;;
19038;SDS011;9652;49.014;12.052;2023-02-12T13:50:02;13.57;;;8.20;;
19038;SDS011;9652;49.014;12.052;2023-02-12T13:52:48;12.23;;;7.13;;
19038;SDS011;9652;49.014;12.052;2023-02-12T13:55:23;13.10;;;7.03;;
19038;SDS011;9652;49.014;12.052;2023-02-12T14:04:14;9.43;;;6.20;;
19038;SDS011;9652;49.014;12.052;2023-02-12T14:06:56;7.07;;;4.90;;
19038;SDS011;9652;49.014;12.052;2023-02-12T14:09:31;8.50;;;4.77;;
19038;SDS011;9652;49.014;12.052;2023-02-12T14:12:07;9.67;;;5.47;;
19038;SDS011;9652;49.014;12.052;2023-02-12T14:14:41;9.20;;;5.47;;
19038;SDS011;9652;49.014;12.052;2023-02-12T14:20:20;9.10;;;5.80;;
19038;SDS011;9652;49.014;12.052;2023-02-12T14:22:57;7.73;;;4.90;;
19038;SDS011;9652;49.014;12.052;2023-02-12T14:25:54;10.00;;;6.30;;
19038;SDS011;9652;49.014;12.052;2023-02-12T14:28:26;11.57;;;6.43;;
19038;SDS011;9652;49.014;12.052;2023-02-12T14:37:33;12.03;;;7.37;;
19038;SDS011;9652;49.014;12.052;2023-02-12T14:49:23;14.83;;;7.90;;
19038;SDS011;9652;49.014;12.052;2023-02-12T14:51:55;12.53;;;7.43;;
19038;SDS011;9652;49.014;12.052;2023-02-12T14:54:29;11.63;;;7.17;;
19038;SDS011;9652;49.014;12.052;2023-02-12T14:57:02;12.17;;;7.03;;
19038;SDS011;9652;49.014;12.052;2023-02-12T14:59:37;12.77;;;6.70;;
19038;SDS011;9652;49.014;12.052;2023-02-12T15:02:11;11.60;;;7.10;;
19038;SDS011;9652;49.014;12.052;2023-02-12T15:04:46;9.10;;;6.20;;
19038;SDS011;9652;49.014;12.052;2023-02-12T15:07:19;10.63;;;5.90;;
19038;SDS011;9652;49.014;12.052;2023-02-12T15:09:56;7.37;;;5.53;;
19038;SDS011;9652;49.014;12.052;2023-02-12T15:12:34;12.67;;;7.13;;
19038;SDS011;9652;49.014;12.052;2023-02-12T15:15:11;13.23;;;7.77;;
19038;SDS011;9652;49.014;12.052;2023-02-12T15:17:52;12.37;;;7.10;;
19038;SDS011;9652;49.014;12.052;2023-02-12T15:20:24;11.90;;;6.80;;
19038;SDS011;9652;49.014;12.052;2023-02-12T15:23:00;12.40;;;6.90;;
19038;SDS011;9652;49.014;12.052;2023-02-12T15:25:30;12.77;;;7.53;;
19038;SDS011;9652;49.014;12.052;2023-02-12T15:27:59;9.80;;;7.00;;
19038;SDS011;9652;49.014;12.052;2023-02-12T15:30:32;10.03;;;6.47;;
19038;SDS011;9652;49.014;12.052;2023-02-12T15:33:03;10.70;;;6.73;;
19038;SDS011;9652;49.014;12.052;2023-02-12T15:35:33;11.20;;;6.23;;